createdAt,value
2018-08-12T00:02:09.837Z,45.80
2018-08-12T00:04:38.113Z,45.80
2018-08-12T00:07:06.416Z,45.90
2018-08-12T00:09:34.754Z,46.00
2018-08-12T00:12:03.037Z,46.10
2018-08-12T00:14:31.311Z,46.40
2018-08-12T00:16:59.577Z,46.50
2018-08-12T00:19:27.835Z,46.90
2018-08-12T00:21:56.117Z,46.60
2018-08-12T00:24:24.418Z,46.50
2018-08-12T00:26:52.706Z,46.40
2018-08-12T00:29:20.973Z,46.10
2018-08-12T00:31:49.271Z,46.00
2018-08-12T00:34:17.531Z,46.20
2018-08-12T00:36:45.815Z,46.00
2018-08-12T00:39:14.189Z,46.30
2018-08-12T00:41:42.456Z,46.30
2018-08-12T00:44:10.733Z,46.30
2018-08-12T00:46:39.013Z,46.20
2018-08-12T00:49:07.355Z,46.90
2018-08-12T00:51:35.621Z,46.70
2018-08-12T00:54:03.923Z,46.60
2018-08-12T00:56:32.190Z,46.50
2018-08-12T00:59:00.462Z,46.60
2018-08-12T01:01:28.736Z,46.60
2018-08-12T01:03:57.021Z,47.10
2018-08-12T01:06:25.320Z,47.00
2018-08-12T01:08:53.600Z,46.60
2018-08-12T01:11:21.860Z,45.90
2018-08-12T01:13:50.163Z,45.40
2018-08-12T01:16:18.447Z,45.30
2018-08-12T01:18:46.739Z,45.60
2018-08-12T01:21:15.009Z,45.80
2018-08-12T01:23:43.303Z,46.40
2018-08-12T01:26:11.585Z,46.10
2018-08-12T01:28:39.851Z,46.30
2018-08-12T01:31:08.133Z,46.20
2018-08-12T01:33:36.407Z,46.20
2018-08-12T01:36:04.807Z,46.40
2018-08-12T01:38:33.090Z,46.40
2018-08-12T01:41:01.358Z,46.40
2018-08-12T01:43:29.639Z,46.40
2018-08-12T01:45:57.939Z,46.50
2018-08-12T01:48:26.237Z,46.40
2018-08-12T01:50:54.517Z,46.50
2018-08-12T01:53:22.775Z,46.20
2018-08-12T01:55:51.059Z,46.40
2018-08-12T01:58:19.321Z,46.60
2018-08-12T02:00:47.590Z,46.50
2018-08-12T02:03:15.853Z,46.40
2018-08-12T02:05:44.128Z,46.10
2018-08-12T02:08:12.389Z,46.20
2018-08-12T02:10:40.663Z,46.10
2018-08-12T02:13:08.938Z,46.10
2018-08-12T02:15:37.212Z,46.00
2018-08-12T02:18:05.516Z,46.00
2018-08-12T02:20:33.771Z,46.10
2018-08-12T02:23:02.086Z,46.00
2018-08-12T02:25:30.380Z,46.40
2018-08-12T02:27:58.666Z,46.50
2018-08-12T02:30:26.925Z,46.50
2018-08-12T02:32:55.177Z,46.50
2018-08-12T02:35:23.448Z,46.40
2018-08-12T02:37:51.718Z,46.40
2018-08-12T02:40:20.010Z,46.50
2018-08-12T02:42:48.263Z,46.40
2018-08-12T02:45:16.776Z,46.30
2018-08-12T02:47:45.062Z,46.40
2018-08-12T02:50:13.335Z,46.00
2018-08-12T02:52:41.629Z,45.90
2018-08-12T02:55:10.510Z,45.80
2018-08-12T02:57:38.780Z,46.00
2018-08-12T03:00:08.352Z,45.90
2018-08-12T03:02:36.639Z,45.90
2018-08-12T03:05:05.076Z,46.20
2018-08-12T03:07:33.861Z,46.30
2018-08-12T03:10:02.138Z,46.30
2018-08-12T03:12:30.418Z,46.20
2018-08-12T03:14:58.712Z,46.30
2018-08-12T03:17:26.974Z,46.20
2018-08-12T03:19:55.244Z,46.40
2018-08-12T03:22:23.503Z,46.70
2018-08-12T03:24:51.767Z,46.70
2018-08-12T03:27:20.021Z,46.60
2018-08-12T03:29:48.298Z,46.50
2018-08-12T03:32:16.658Z,46.40
2018-08-12T03:34:44.918Z,46.40
2018-08-12T03:37:13.204Z,46.30
2018-08-12T03:39:41.461Z,46.30
2018-08-12T03:42:09.720Z,46.20
2018-08-12T03:44:37.984Z,46.40
2018-08-12T03:47:06.285Z,46.10
2018-08-12T03:49:34.541Z,46.40
2018-08-12T03:52:03.151Z,46.60
2018-08-12T03:54:31.412Z,46.50
2018-08-12T03:56:59.667Z,46.20
2018-08-12T03:59:27.944Z,46.30
2018-08-12T04:01:56.198Z,46.20
2018-08-12T04:04:24.526Z,46.70
2018-08-12T04:06:52.784Z,46.60
2018-08-12T04:09:21.048Z,46.20
2018-08-12T04:11:49.348Z,46.00
2018-08-12T04:14:17.594Z,46.00
2018-08-12T04:16:53.852Z,45.90
2018-08-12T04:19:22.133Z,45.80
2018-08-12T04:21:50.412Z,45.80
2018-08-12T04:24:18.656Z,45.80
2018-08-12T04:26:46.962Z,46.10
2018-08-12T04:29:15.251Z,45.90
2018-08-12T04:31:43.632Z,45.70
2018-08-12T04:34:11.930Z,46.10
2018-08-12T04:36:40.197Z,45.90
2018-08-12T04:39:10.898Z,45.70
2018-08-12T04:41:39.644Z,45.80
2018-08-12T04:44:07.920Z,45.80
2018-08-12T04:46:36.685Z,45.80
2018-08-12T04:49:05.033Z,45.90
2018-08-12T04:51:33.292Z,45.70
2018-08-12T04:54:01.629Z,46.30
2018-08-12T04:56:29.856Z,45.80
2018-08-12T04:58:58.130Z,45.60
2018-08-12T05:01:26.426Z,45.50
2018-08-12T05:03:54.744Z,45.80
2018-08-12T05:06:23.002Z,45.90
2018-08-12T05:08:51.312Z,45.80
2018-08-12T05:11:19.580Z,45.70
2018-08-12T05:13:47.860Z,45.80
2018-08-12T05:16:16.123Z,45.80
2018-08-12T05:18:44.390Z,46.20
2018-08-12T05:21:12.696Z,46.00
2018-08-12T05:23:40.971Z,45.70
2018-08-12T05:26:09.280Z,45.50
2018-08-12T05:28:37.548Z,45.30
2018-08-12T05:31:05.844Z,45.60
2018-08-12T05:33:34.132Z,45.80
2018-08-12T05:36:02.442Z,45.70
2018-08-12T05:38:30.700Z,45.80
2018-08-12T05:40:58.988Z,45.80
2018-08-12T05:43:27.252Z,46.00
2018-08-12T05:45:55.520Z,46.10
2018-08-12T05:48:23.850Z,46.20
2018-08-12T05:50:52.123Z,47.00
2018-08-12T05:53:20.416Z,46.20
2018-08-12T05:55:48.688Z,46.10
2018-08-12T05:58:16.954Z,46.10
2018-08-12T06:00:45.231Z,46.20
2018-08-12T06:03:13.515Z,46.40
2018-08-12T06:05:41.784Z,46.60
2018-08-12T06:08:10.090Z,46.70
2018-08-12T06:10:38.363Z,46.30
2018-08-12T06:13:06.658Z,46.10
2018-08-12T06:15:35.001Z,45.90
2018-08-12T06:18:03.247Z,45.80
2018-08-12T06:20:31.526Z,45.90
2018-08-12T06:22:59.855Z,46.00
2018-08-12T06:25:28.139Z,46.10
2018-08-12T06:27:56.411Z,46.50
2018-08-12T06:30:24.696Z,46.60
2018-08-12T06:32:53.123Z,46.70
2018-08-12T06:35:21.403Z,46.50
2018-08-12T06:37:49.691Z,46.50
2018-08-12T06:40:17.981Z,46.50
2018-08-12T06:42:46.593Z,46.60
2018-08-12T06:45:17.116Z,46.70
2018-08-12T06:47:46.551Z,46.80
2018-08-12T06:50:14.836Z,46.60
2018-08-12T06:52:43.182Z,46.70
2018-08-12T06:55:12.421Z,46.60
2018-08-12T06:57:41.515Z,47.00
2018-08-12T07:00:15.811Z,47.10
2018-08-12T07:02:44.076Z,46.90
2018-08-12T07:05:12.818Z,46.90
2018-08-12T07:07:41.176Z,46.60
2018-08-12T07:10:12.652Z,46.50
2018-08-12T07:12:41.347Z,46.50
2018-08-12T07:15:11.963Z,46.40
2018-08-12T07:17:40.781Z,46.70
2018-08-12T07:20:09.985Z,46.80
2018-08-12T07:22:38.463Z,46.90
2018-08-12T07:25:07.667Z,47.20
2018-08-12T07:27:36.025Z,47.30
2018-08-12T07:30:05.508Z,47.20
2018-08-12T07:32:33.788Z,47.30
2018-08-12T07:35:02.065Z,47.50
2018-08-12T07:37:30.364Z,47.70
2018-08-12T07:39:58.619Z,47.90
2018-08-12T07:42:26.891Z,47.90
2018-08-12T07:44:55.199Z,47.60
2018-08-12T07:47:23.475Z,47.60
2018-08-12T07:49:51.773Z,47.40
2018-08-12T07:52:20.068Z,47.50
2018-08-12T07:54:48.697Z,48.00
2018-08-12T07:57:17.253Z,47.90
2018-08-12T07:59:45.528Z,47.80
2018-08-12T08:02:13.887Z,47.80
2018-08-12T08:04:42.161Z,48.00
2018-08-12T08:07:10.446Z,48.20
2018-08-12T08:09:38.716Z,48.70
2018-08-12T08:12:07.003Z,48.80
2018-08-12T08:14:35.285Z,48.50
2018-08-12T08:17:03.572Z,48.60
2018-08-12T08:19:31.863Z,48.60
2018-08-12T08:22:00.159Z,48.60
2018-08-12T08:24:28.449Z,49.10
2018-08-12T08:26:56.739Z,49.20
2018-08-12T08:29:25.030Z,49.20
2018-08-12T08:31:53.528Z,48.40
2018-08-12T08:34:21.563Z,47.90
2018-08-12T08:36:49.861Z,47.80
2018-08-12T08:39:18.175Z,48.00
2018-08-12T08:41:46.440Z,48.00
2018-08-12T08:44:15.092Z,48.00
2018-08-12T08:46:43.372Z,47.90
2018-08-12T08:49:11.672Z,48.60
2018-08-12T08:51:39.997Z,48.60
2018-08-12T08:54:08.341Z,48.50
2018-08-12T08:56:36.613Z,48.20
2018-08-12T08:59:04.979Z,47.90
2018-08-12T09:01:33.252Z,47.30
2018-08-12T09:04:01.529Z,48.90
2018-08-12T09:06:29.790Z,49.00
2018-08-12T09:08:58.126Z,48.80
2018-08-12T09:11:26.355Z,48.00
2018-08-12T09:13:54.621Z,48.00
2018-08-12T09:16:22.932Z,47.60
2018-08-12T09:18:51.191Z,47.30
2018-08-12T09:21:19.560Z,48.20
2018-08-12T09:23:47.827Z,48.30
2018-08-12T09:26:16.108Z,46.90
2018-08-12T09:28:44.398Z,46.40
2018-08-12T09:31:12.717Z,46.20
2018-08-12T09:33:41.276Z,48.00
2018-08-12T09:36:09.544Z,47.80
2018-08-12T09:38:37.816Z,47.30
2018-08-12T09:41:06.364Z,47.60
2018-08-12T09:43:34.636Z,46.90
2018-08-12T09:46:03.835Z,46.60
2018-08-12T09:48:32.126Z,48.70
2018-08-12T09:51:00.417Z,49.30
2018-08-12T09:53:28.691Z,48.40
2018-08-12T09:55:56.993Z,48.90
2018-08-12T09:58:25.671Z,48.40
2018-08-12T10:00:54.051Z,48.20
2018-08-12T10:03:22.318Z,46.60
2018-08-12T10:05:50.620Z,45.40
2018-08-12T10:08:18.922Z,45.80
2018-08-12T10:10:47.217Z,45.50
2018-08-12T10:13:15.477Z,46.70
2018-08-12T10:15:43.818Z,47.40
2018-08-12T10:18:12.104Z,46.40
2018-08-12T10:20:40.461Z,46.20
2018-08-12T10:23:08.748Z,45.80
2018-08-12T10:25:37.030Z,45.50
2018-08-12T10:28:05.340Z,47.80
2018-08-12T10:30:33.950Z,47.70
2018-08-12T10:33:02.242Z,46.30
2018-08-12T10:35:31.040Z,46.10
2018-08-12T10:37:59.308Z,46.30
2018-08-12T10:40:27.600Z,45.10
2018-08-12T10:42:55.879Z,46.30
2018-08-12T10:45:24.158Z,47.60
2018-08-12T10:47:52.570Z,48.20
2018-08-12T10:50:21.040Z,48.20
2018-08-12T10:52:50.884Z,47.60
2018-08-12T10:55:21.777Z,46.80
2018-08-12T10:57:50.163Z,44.90
2018-08-12T11:00:22.562Z,45.40
2018-08-12T11:02:51.022Z,44.80
2018-08-12T11:05:19.446Z,45.30
2018-08-12T11:07:50.718Z,46.20
2018-08-12T11:10:19.063Z,45.00
2018-08-12T11:12:47.538Z,45.80
2018-08-12T11:15:15.781Z,45.10
2018-08-12T11:17:44.097Z,44.80
2018-08-12T11:20:12.394Z,45.70
2018-08-12T11:22:40.668Z,46.80
2018-08-12T11:25:10.203Z,48.10
2018-08-12T11:27:38.566Z,46.90
2018-08-12T11:30:10.550Z,46.90
2018-08-12T11:32:39.133Z,46.30
2018-08-12T11:35:09.258Z,45.20
2018-08-12T11:37:37.549Z,46.40
2018-08-12T11:40:06.722Z,46.60
2018-08-12T11:42:35.030Z,45.60
2018-08-12T11:45:03.668Z,44.20
2018-08-12T11:47:32.091Z,46.10
2018-08-12T11:50:00.321Z,45.30
2018-08-12T11:52:28.599Z,44.70
2018-08-12T11:54:56.923Z,45.10
2018-08-12T11:57:25.254Z,44.90
2018-08-12T11:59:53.537Z,44.30
2018-08-12T12:02:21.860Z,46.30
2018-08-12T12:04:50.145Z,45.90
2018-08-12T12:07:18.420Z,45.40
2018-08-12T12:09:46.716Z,45.20
2018-08-12T12:12:14.998Z,43.90
2018-08-12T12:14:43.270Z,44.50
2018-08-12T12:17:11.611Z,44.10
2018-08-12T12:19:39.950Z,42.80
2018-08-12T12:22:08.249Z,43.60
2018-08-12T12:24:36.567Z,43.40
2018-08-12T12:27:04.868Z,44.00
2018-08-12T12:29:33.167Z,44.60
2018-08-12T12:32:01.486Z,43.50
2018-08-12T12:34:29.797Z,43.60
2018-08-12T12:36:58.110Z,43.80
2018-08-12T12:39:26.397Z,42.90
2018-08-12T12:41:54.691Z,44.10
2018-08-12T12:44:22.995Z,46.80
2018-08-12T12:46:51.279Z,46.90
2018-08-12T12:49:19.603Z,46.30
2018-08-12T12:51:47.863Z,44.30
2018-08-12T12:54:16.164Z,45.20
2018-08-12T12:56:44.837Z,44.90
2018-08-12T12:59:13.141Z,43.30
2018-08-12T13:01:41.443Z,43.10
2018-08-12T13:04:09.755Z,42.30
2018-08-12T13:06:38.032Z,42.70
2018-08-12T13:09:08.715Z,42.60
2018-08-12T13:11:36.991Z,42.80
2018-08-12T13:14:05.671Z,43.30
2018-08-12T13:16:34.017Z,43.50
2018-08-12T13:19:02.305Z,43.40
2018-08-12T13:21:30.623Z,42.40
2018-08-12T13:23:58.927Z,41.60
2018-08-12T13:26:28.206Z,42.90
2018-08-12T13:28:56.492Z,44.00
2018-08-12T13:31:24.777Z,43.80
2018-08-12T13:33:53.103Z,43.70
2018-08-12T13:36:21.376Z,43.00
2018-08-12T13:38:49.657Z,46.20
2018-08-12T13:41:17.951Z,46.40
2018-08-12T13:43:46.220Z,47.00
2018-08-12T13:46:14.535Z,46.30
2018-08-12T13:48:42.829Z,45.70
2018-08-12T13:51:11.109Z,45.90
2018-08-12T13:53:39.379Z,44.80
2018-08-12T13:56:07.691Z,43.60
2018-08-12T13:58:35.957Z,42.10
2018-08-12T14:01:04.253Z,42.70
2018-08-12T14:03:32.544Z,45.00
2018-08-12T14:06:00.843Z,43.80
2018-08-12T14:08:29.144Z,43.90
2018-08-12T14:10:57.425Z,44.40
2018-08-12T14:13:25.755Z,42.90
2018-08-12T14:15:54.045Z,42.70
2018-08-12T14:18:22.303Z,42.40
2018-08-12T14:20:50.624Z,43.50
2018-08-12T14:23:18.960Z,43.50
2018-08-12T14:25:47.263Z,42.10
2018-08-12T14:28:15.552Z,42.00
2018-08-12T14:30:43.824Z,42.10
2018-08-12T14:33:12.102Z,41.90
2018-08-12T14:35:40.404Z,42.90
2018-08-12T14:38:08.704Z,42.90
2018-08-12T14:40:36.975Z,42.90
2018-08-12T14:43:05.353Z,44.70
2018-08-12T14:45:33.638Z,44.60
2018-08-12T14:48:01.931Z,43.30
2018-08-12T14:50:30.233Z,43.00
2018-08-12T14:52:58.521Z,44.10
2018-08-12T14:55:26.808Z,43.10
2018-08-12T14:57:55.096Z,46.20
2018-08-12T15:00:23.388Z,45.00
2018-08-12T15:02:52.664Z,44.00
2018-08-12T15:05:21.211Z,44.00
2018-08-12T15:07:49.515Z,44.90
2018-08-12T15:10:17.849Z,42.20
2018-08-12T15:12:47.607Z,41.60
2018-08-12T15:15:18.093Z,41.20
2018-08-12T15:17:46.884Z,40.20
2018-08-12T15:20:15.980Z,41.20
2018-08-12T15:22:44.850Z,41.30
2018-08-12T15:25:14.874Z,39.70
2018-08-12T15:27:43.185Z,38.90
2018-08-12T15:30:11.926Z,39.70
2018-08-12T15:32:40.616Z,39.20
2018-08-12T15:35:09.731Z,39.80
2018-08-12T15:37:38.086Z,41.30
2018-08-12T15:40:08.687Z,41.10
2018-08-12T15:42:37.455Z,40.00
2018-08-12T15:45:08.289Z,43.20
2018-08-12T15:47:37.075Z,39.00
2018-08-12T15:50:06.463Z,38.90
2018-08-12T15:52:34.767Z,38.90
2018-08-12T15:55:03.622Z,38.60
2018-08-12T15:57:32.193Z,39.50
2018-08-12T16:00:00.481Z,41.10
2018-08-12T16:02:28.797Z,41.60
2018-08-12T16:04:57.125Z,39.80
2018-08-12T16:07:25.569Z,39.50
2018-08-12T16:09:53.865Z,38.90
2018-08-12T16:12:22.145Z,39.60
2018-08-12T16:14:50.432Z,40.00
2018-08-12T16:17:18.723Z,40.10
2018-08-12T16:19:48.199Z,39.60
2018-08-12T16:22:16.627Z,38.80
2018-08-12T16:24:45.005Z,41.60
2018-08-12T16:27:13.330Z,40.90
2018-08-12T16:29:41.657Z,41.10
2018-08-12T16:32:09.933Z,43.10
2018-08-12T16:34:38.241Z,40.10
2018-08-12T16:37:06.909Z,39.90
2018-08-12T16:39:35.203Z,40.10
2018-08-12T16:42:03.515Z,39.80
2018-08-12T16:44:31.801Z,40.00
2018-08-12T16:47:00.349Z,39.20
2018-08-12T16:49:28.663Z,39.60
2018-08-12T16:51:56.931Z,39.60
2018-08-12T16:54:25.215Z,39.20
2018-08-12T16:56:53.601Z,39.30
2018-08-12T16:59:21.804Z,40.30
2018-08-12T17:01:50.136Z,41.70
2018-08-12T17:04:18.560Z,44.00
2018-08-12T17:06:46.782Z,43.40
2018-08-12T17:09:15.045Z,43.40
2018-08-12T17:11:43.385Z,40.50
2018-08-12T17:14:11.659Z,40.10
2018-08-12T17:16:39.964Z,40.50
2018-08-12T17:19:08.240Z,40.30
2018-08-12T17:21:36.576Z,39.70
2018-08-12T17:24:04.860Z,39.60
2018-08-12T17:26:33.158Z,39.50
2018-08-12T17:29:01.448Z,39.30
2018-08-12T17:31:29.750Z,39.50
2018-08-12T17:33:58.030Z,42.50
2018-08-12T17:36:26.314Z,45.00
2018-08-12T17:38:54.636Z,45.10
2018-08-12T17:41:22.954Z,45.10
2018-08-12T17:43:51.296Z,45.00
2018-08-12T17:46:19.876Z,44.80
2018-08-12T17:48:48.210Z,44.70
2018-08-12T17:51:16.528Z,44.40
2018-08-12T17:53:44.840Z,44.50
2018-08-12T17:56:13.146Z,44.60
2018-08-12T17:58:41.430Z,44.60
2018-08-12T18:01:09.977Z,44.50
2018-08-12T18:03:38.344Z,44.40
2018-08-12T18:06:06.665Z,44.60
2018-08-12T18:08:35.134Z,45.00
2018-08-12T18:11:03.570Z,45.20
2018-08-12T18:13:31.885Z,45.90
2018-08-12T18:16:00.169Z,45.80
2018-08-12T18:18:28.476Z,45.80
2018-08-12T18:20:56.848Z,45.60
2018-08-12T18:23:25.163Z,45.50
2018-08-12T18:25:53.516Z,47.00
2018-08-12T18:28:21.923Z,47.30
2018-08-12T18:30:50.260Z,47.40
2018-08-12T18:33:18.570Z,47.10
2018-08-12T18:35:46.868Z,46.70
2018-08-12T18:38:15.164Z,46.80
2018-08-12T18:40:43.491Z,46.60
2018-08-12T18:43:11.833Z,46.50
2018-08-12T18:45:40.219Z,46.80
2018-08-12T18:48:08.541Z,47.70
2018-08-12T18:50:36.998Z,47.70
2018-08-12T18:53:05.372Z,47.40
2018-08-12T18:55:33.675Z,47.30
2018-08-12T18:58:01.973Z,47.30
2018-08-12T19:00:30.284Z,47.80
2018-08-12T19:02:58.600Z,49.10
2018-08-12T19:05:26.900Z,48.70
2018-08-12T19:07:55.224Z,48.00
2018-08-12T19:10:23.544Z,48.00
2018-08-12T19:12:51.968Z,47.90
2018-08-12T19:15:20.320Z,49.00
2018-08-12T19:17:48.710Z,49.00
2018-08-12T19:20:17.022Z,48.70
2018-08-12T19:22:45.350Z,48.40
2018-08-12T19:25:13.686Z,48.30
2018-08-12T19:27:42.025Z,48.00
2018-08-12T19:30:12.013Z,47.80
2018-08-12T19:32:40.433Z,47.90
2018-08-12T19:35:09.215Z,48.20
2018-08-12T19:37:37.563Z,48.40
2018-08-12T19:40:06.040Z,49.00
2018-08-12T19:42:34.451Z,48.60
2018-08-12T19:45:02.777Z,48.80
2018-08-12T19:47:31.499Z,48.70
2018-08-12T19:49:59.968Z,48.80
2018-08-12T19:52:28.827Z,49.10
2018-08-12T19:54:57.198Z,49.10
2018-08-12T19:57:25.579Z,49.00
2018-08-12T19:59:53.966Z,48.60
2018-08-12T20:02:22.327Z,48.50
2018-08-12T20:04:50.732Z,48.90
2018-08-12T20:07:21.376Z,49.20
2018-08-12T20:09:49.745Z,49.00
2018-08-12T20:12:18.215Z,49.10
2018-08-12T20:14:46.535Z,49.40
2018-08-12T20:17:14.940Z,49.70
2018-08-12T20:19:43.298Z,50.00
2018-08-12T20:22:12.614Z,50.00
2018-08-12T20:24:41.214Z,49.40
2018-08-12T20:27:09.995Z,49.00
2018-08-12T20:29:38.326Z,49.10
2018-08-12T20:32:07.172Z,49.80
2018-08-12T20:34:35.532Z,49.60
2018-08-12T20:37:03.892Z,49.20
2018-08-12T20:39:32.313Z,49.10
2018-08-12T20:42:00.555Z,49.50
2018-08-12T20:46:56.402Z,49.70
2018-08-12T20:49:24.709Z,50.10
2018-08-12T20:51:53.037Z,50.10
2018-08-12T20:54:21.331Z,50.30
2018-08-12T20:56:49.608Z,50.40
2018-08-12T20:59:17.895Z,50.10
2018-08-12T21:01:46.169Z,50.10
2018-08-12T21:04:14.502Z,50.20
2018-08-12T21:06:42.789Z,50.00
2018-08-12T21:09:11.909Z,49.70
2018-08-12T21:11:40.603Z,50.00
2018-08-12T21:14:08.856Z,49.50
2018-08-12T21:16:37.216Z,49.10
2018-08-12T21:19:05.828Z,49.70
2018-08-12T21:21:34.196Z,49.50
2018-08-12T21:24:02.455Z,49.90
2018-08-12T21:26:30.755Z,49.60
2018-08-12T21:28:59.049Z,49.50
2018-08-12T21:31:27.341Z,50.90
2018-08-12T21:33:55.616Z,50.40
2018-08-12T21:36:23.940Z,50.20
2018-08-12T21:38:52.227Z,50.50
2018-08-12T21:41:20.529Z,50.30
2018-08-12T21:43:48.813Z,50.10
2018-08-12T21:46:17.098Z,49.80
2018-08-12T21:48:45.437Z,49.90
2018-08-12T21:51:13.726Z,49.90
2018-08-12T21:53:41.989Z,50.20
2018-08-12T21:56:10.265Z,50.10
2018-08-12T21:58:38.547Z,49.60
2018-08-12T22:01:07.139Z,50.00
2018-08-12T22:03:35.464Z,50.10
2018-08-12T22:06:03.811Z,49.90
2018-08-12T22:08:32.030Z,50.10
2018-08-12T22:11:00.325Z,49.80
2018-08-12T22:13:28.611Z,49.90
2018-08-12T22:15:56.889Z,50.20
2018-08-12T22:18:25.161Z,50.10
2018-08-12T22:20:53.431Z,50.50
2018-08-12T22:23:21.737Z,50.70
2018-08-12T22:25:49.997Z,50.50
2018-08-12T22:28:18.301Z,50.00
2018-08-12T22:30:46.680Z,49.60
2018-08-12T22:33:14.944Z,49.40
2018-08-12T22:35:43.201Z,49.40
2018-08-12T22:38:11.475Z,49.50
2018-08-12T22:40:39.779Z,49.30
2018-08-12T22:43:08.061Z,49.20
2018-08-12T22:45:36.386Z,49.60
2018-08-12T22:48:05.265Z,50.00
2018-08-12T22:50:33.553Z,50.10
2018-08-12T22:53:01.829Z,49.70
2018-08-12T22:55:30.132Z,49.80
2018-08-12T22:57:58.810Z,50.20
2018-08-12T23:00:27.118Z,50.30
2018-08-12T23:02:55.459Z,50.20
2018-08-12T23:05:23.730Z,50.20
2018-08-12T23:07:52.101Z,50.10
2018-08-12T23:10:20.317Z,49.80
2018-08-12T23:12:48.593Z,49.50
2018-08-12T23:15:28.070Z,49.70
2018-08-12T23:17:56.327Z,49.40
2018-08-12T23:20:24.655Z,49.50
2018-08-12T23:22:52.923Z,49.30
2018-08-12T23:25:21.201Z,49.50
2018-08-12T23:27:49.806Z,49.90
2018-08-12T23:30:18.073Z,50.20
2018-08-12T23:32:46.323Z,50.00
2018-08-12T23:35:14.603Z,50.10
2018-08-12T23:37:42.859Z,50.20
2018-08-12T23:40:11.120Z,50.30
2018-08-12T23:42:39.388Z,50.20
2018-08-12T23:45:07.662Z,49.80
2018-08-12T23:47:35.951Z,49.70
2018-08-12T23:50:04.267Z,49.60
2018-08-12T23:52:32.529Z,49.40
2018-08-12T23:55:00.812Z,49.50
2018-08-12T23:57:29.116Z,49.60
2018-08-12T23:59:57.402Z,49.80
